Time;durP1;ratioP1;P1;durP2;ratioP2;P2;SDS_P1;SDS_P2;PMS_P1;PMS_P2;Temp;Humidity;BMP_temperature;BMP_pressure;BME280_temperature;BME280_humidity;BME280_pressure;Samples;Min_cycle;Max_cycle;Signal;HPM_P1;HPM_P2
2023/11/04 00:12:22;;;;;;;14.80;12.10;;;;;;;13.57;100.00;97014.45;673188;1262;140180;-86
2023/11/04 00:27:26;;;;;;;13.10;10.40;;;;;;;13.46;100.00;97020.09;675289;1261;139641;-87
2023/11/04 00:42:30;;;;;;;16.10;10.50;;;;;;;13.45;100.00;97011.74;673687;1263;139375;-87
2023/11/04 00:57:35;;;;;;;16.10;10.00;;;;;;;13.46;100.00;97008.93;674925;1262;139307;-88
2023/11/04 01:12:39;;;;;;;7.50;5.30;;;;;;;12.97;100.00;97020.12;678065;1273;139478;-88
2023/11/04 01:27:42;;;;;;;3.40;1.80;;;;;;;12.71;100.00;97041.23;678962;1262;138821;-86
2023/11/04 01:42:46;;;;;;;2.80;1.90;;;;;;;12.49;100.00;97083.04;670920;1262;139397;-88
2023/11/04 01:57:49;;;;;;;1.90;1.30;;;;;;;11.83;100.00;97135.84;673002;1262;138741;-86
2023/11/04 02:12:53;;;;;;;3.40;2.60;;;;;;;11.48;100.00;97197.02;677632;1262;138808;-89
2023/11/04 02:27:57;;;;;;;3.20;2.40;;;;;;;11.29;100.00;97252.62;676612;1263;138797;-86
2023/11/04 02:43:00;;;;;;;4.20;2.40;;;;;;;10.95;100.00;97305.23;674113;1265;138235;-87
2023/11/04 02:58:03;;;;;;;2.10;1.50;;;;;;;10.50;100.00;97373.30;677518;1260;139693;-90
2023/11/04 03:13:07;;;;;;;3.00;1.60;;;;;;;10.14;100.00;97447.20;676174;1262;138820;-88
2023/11/04 03:28:11;;;;;;;1.80;1.10;;;;;;;10.13;100.00;97505.60;672176;1262;139323;-86
2023/11/04 03:43:15;;;;;;;3.00;1.30;;;;;;;9.87;100.00;97549.67;671854;1261;138664;-87
2023/11/04 03:58:19;;;;;;;5.80;3.10;;;;;;;9.83;100.00;97572.54;671762;1257;139355;-86
2023/11/04 04:13:23;;;;;;;9.50;5.00;;;;;;;9.80;100.00;97589.90;673809;1262;138553;-86
2023/11/04 04:28:27;;;;;;;5.80;2.50;;;;;;;9.55;100.00;97609.92;674162;1264;139642;-89
2023/11/04 04:43:30;;;;;;;3.40;2.40;;;;;;;9.62;100.00;97636.22;673252;1260;138138;-89
2023/11/04 04:58:34;;;;;;;3.90;2.90;;;;;;;9.59;100.00;97672.16;672607;1263;138831;-91
2023/11/04 05:13:38;;;;;;;6.90;3.20;;;;;;;9.78;100.00;97706.30;673936;1263;139474;-89
2023/11/04 05:28:41;;;;;;;8.10;6.70;;;;;;;9.82;100.00;97741.93;672887;1263;138490;-89
2023/11/04 05:43:45;;;;;;;7.50;5.70;;;;;;;10.00;100.00;97776.28;673488;1263;138500;-90
2023/11/04 05:58:49;;;;;;;8.30;6.00;;;;;;;10.14;100.00;97807.55;674668;1262;139472;-90
2023/11/04 06:13:53;;;;;;;10.10;6.60;;;;;;;10.24;100.00;97841.45;676602;1261;138430;-89
2023/11/04 06:28:56;;;;;;;11.30;6.80;;;;;;;10.31;100.00;97877.12;676442;1263;138918;-90
2023/11/04 06:44:00;;;;;;;10.50;8.40;;;;;;;10.49;100.00;97906.33;675894;1259;139023;-89
2023/11/04 06:59:04;;;;;;;16.00;8.10;;;;;;;10.57;100.00;97927.95;677079;1263;138798;-88
2023/11/04 07:14:08;;;;;;;13.90;8.60;;;;;;;10.70;100.00;97958.14;675155;1261;139086;-89
2023/11/04 07:29:13;;;;;;;17.00;10.40;;;;;;;10.82;100.00;97992.59;672568;1261;138647;-91
2023/11/04 07:44:17;;;;;;;17.80;11.50;;;;;;;10.90;100.00;98022.91;676404;1258;138458;-91
2023/11/04 07:59:21;;;;;;;14.00;9.90;;;;;;;10.91;100.00;98038.37;674347;1261;138663;-93
2023/11/04 08:14:24;;;;;;;18.60;11.70;;;;;;;10.96;100.00;98055.38;674188;1260;139540;-92
2023/11/04 08:29:28;;;;;;;16.50;11.20;;;;;;;11.04;100.00;98084.98;678735;1260;139927;-89
2023/11/04 08:44:31;;;;;;;18.00;12.80;;;;;;;11.14;100.00;98105.60;679454;1261;138954;-92
2023/11/04 08:59:35;;;;;;;21.20;11.40;;;;;;;11.26;100.00;98127.48;678496;1263;138806;-93
2023/11/04 09:14:38;;;;;;;21.30;12.30;;;;;;;11.17;100.00;98141.98;677919;1260;139215;-91
2023/11/04 09:29:44;;;;;;;568.30;298.10;;;;;;;11.21;100.00;98149.41;678014;1263;138182;-89
2023/11/04 09:52:10;;;;;;;23.00;14.60;;;;;;;11.37;100.00;98156.86;660061;1298;545565;-90
2023/11/04 10:07:15;;;;;;;23.30;13.60;;;;;;;11.65;100.00;98164.59;671995;1279;139328;-90
2023/11/04 10:22:18;;;;;;;22.10;12.10;;;;;;;11.73;100.00;98168.34;671079;1274;138519;-88
2023/11/04 10:37:25;;;;;;;27.00;12.90;;;;;;;11.62;100.00;98174.05;667906;1284;138678;-92
2023/11/04 10:52:34;;;;;;;37.00;20.90;;;;;;;11.67;100.00;98193.68;670511;1276;138936;-89
2023/11/04 11:07:43;;;;;;;20.20;11.10;;;;;;;11.62;100.00;98206.46;673245;1275;139206;-89
2023/11/04 11:22:55;;;;;;;15.80;8.70;;;;;;;12.09;99.75;98217.89;667703;1275;139851;-89
2023/11/04 11:37:59;;;;;;;14.20;8.70;;;;;;;12.20;98.44;98210.23;670838;1278;138461;-88
2023/11/04 11:53:02;;;;;;;19.90;9.00;;;;;;;12.26;99.08;98213.16;673778;1264;138860;-90
2023/11/04 12:08:06;;;;;;;13.20;7.20;;;;;;;12.81;97.37;98222.36;677337;1266;139322;-89
2023/11/04 12:23:11;;;;;;;35.00;29.40;;;;;;;13.20;93.88;98212.96;671991;1263;139345;-86
2023/11/04 12:38:15;;;;;;;13.10;7.40;;;;;;;13.08;93.57;98210.16;670430;1269;140031;-89
2023/11/04 12:53:19;;;;;;;18.40;9.20;;;;;;;13.19;94.10;98213.54;672959;1265;138755;-89
2023/11/04 13:08:23;;;;;;;38.30;24.70;;;;;;;13.05;94.28;98208.23;671264;1267;139229;-86
2023/11/04 13:23:26;;;;;;;28.50;13.10;;;;;;;12.89;89.47;98211.80;679744;1262;139579;-87
2023/11/04 13:38:30;;;;;;;12.80;4.40;;;;;;;12.92;86.93;98219.63;674757;1264;138947;-87
2023/11/04 13:53:34;;;;;;;14.30;7.50;;;;;;;12.70;85.30;98224.69;670874;1262;139573;-85
2023/11/04 14:08:37;;;;;;;12.40;5.80;;;;;;;12.77;84.69;98221.35;672246;1266;139812;-84
2023/11/04 14:23:41;;;;;;;17.60;9.50;;;;;;;12.42;85.29;98222.48;671750;1263;138521;-83
2023/11/04 14:38:44;;;;;;;20.50;9.70;;;;;;;12.01;87.80;98210.94;674514;1266;140079;-81
2023/11/04 14:53:47;;;;;;;29.20;13.70;;;;;;;11.74;89.87;98214.33;672412;1259;138619;-83
2023/11/04 15:08:53;;;;;;;22.70;10.60;;;;;;;11.44;92.05;98221.41;671505;1260;139327;-83
2023/11/04 15:24:08;;;;;;;23.40;9.50;;;;;;;11.07;94.71;98222.65;673155;1263;139410;-84
2023/11/04 15:39:13;;;;;;;34.40;15.30;;;;;;;10.94;95.54;98230.01;675051;1259;139354;-84
2023/11/04 15:54:18;;;;;;;54.60;20.40;;;;;;;10.88;95.30;98220.24;676078;1260;139150;-83
2023/11/04 16:09:22;;;;;;;62.60;24.50;;;;;;;10.59;94.71;98208.16;670063;1262;138925;-83
2023/11/04 16:24:25;;;;;;;246.60;115.80;;;;;;;10.31;96.38;98211.13;672773;1260;138885;-82
2023/11/04 16:39:29;;;;;;;157.30;77.30;;;;;;;10.06;97.10;98208.81;676835;1262;139270;-82
2023/11/04 16:54:32;;;;;;;96.00;45.20;;;;;;;10.04;98.59;98199.88;680320;1260;138962;-83
2023/11/04 17:09:36;;;;;;;101.70;51.10;;;;;;;10.03;98.21;98175.30;681810;1259;139325;-83
2023/11/04 17:24:39;;;;;;;113.60;44.40;;;;;;;10.06;97.69;98172.38;675415;1260;139795;-84
2023/11/04 17:39:42;;;;;;;83.40;41.00;;;;;;;9.84;98.42;98148.13;676445;1261;139421;-83
2023/11/04 17:54:47;;;;;;;94.30;46.90;;;;;;;9.61;99.28;98130.70;675847;1263;139147;-81
2023/11/04 18:09:50;;;;;;;84.80;40.20;;;;;;;9.44;99.74;98113.09;676407;1263;139073;-82
2023/11/04 18:24:54;;;;;;;122.90;53.20;;;;;;;9.35;99.74;98088.95;676195;1262;138542;-84
2023/11/04 18:39:58;;;;;;;37.40;18.10;;;;;;;9.25;99.89;98075.63;674867;1259;139027;-82
2023/11/04 18:55:02;;;;;;;36.60;17.80;;;;;;;9.17;99.44;98053.12;673941;1259;138591;-81
2023/11/04 19:10:07;;;;;;;127.40;49.40;;;;;;;9.10;99.55;98038.94;674884;1262;138827;-82
2023/11/04 19:25:12;;;;;;;155.50;69.70;;;;;;;9.02;99.42;98030.55;674613;1261;139183;-82
2023/11/04 19:40:16;;;;;;;74.10;29.10;;;;;;;8.95;99.38;98024.69;676466;1259;139984;-82
2023/11/04 19:55:20;;;;;;;43.10;21.10;;;;;;;8.69;99.50;98012.73;676114;1262;140230;-82
2023/11/04 20:10:25;;;;;;;42.90;23.20;;;;;;;8.39;99.56;97994.89;674797;1262;139053;-81
2023/11/04 20:25:30;;;;;;;32.80;17.00;;;;;;;8.10;100.00;97985.69;677472;1263;139008;-82
2023/11/04 20:40:38;;;;;;;43.50;18.40;;;;;;;8.21;100.00;97964.17;675375;1269;138812;-82
2023/11/04 20:55:42;;;;;;;46.10;22.60;;;;;;;8.04;100.00;97942.77;678769;1258;139633;-81
2023/11/04 21:10:46;;;;;;;53.80;26.50;;;;;;;7.92;100.00;97939.88;678996;1261;139025;-82
2023/11/04 21:25:49;;;;;;;45.30;18.40;;;;;;;7.88;100.00;97955.55;671443;1262;139133;-82
2023/11/04 21:40:52;;;;;;;32.80;17.10;;;;;;;7.74;100.00;97983.79;677596;1261;139575;-82
2023/11/04 21:55:56;;;;;;;45.90;18.90;;;;;;;7.64;100.00;97973.93;678306;1259;139088;-82
2023/11/04 22:10:59;;;;;;;30.10;16.90;;;;;;;7.50;100.00;97954.20;680790;1262;140053;-82
2023/11/04 22:26:03;;;;;;;33.20;17.10;;;;;;;7.43;100.00;97949.33;673235;1263;139004;-82
2023/11/04 22:41:07;;;;;;;33.40;18.30;;;;;;;7.53;100.00;97944.21;673861;1262;139320;-81
2023/11/04 22:56:10;;;;;;;42.80;21.20;;;;;;;7.36;100.00;97933.75;672301;1264;140056;-82
2023/11/04 23:15:52;;;;;;;61.90;23.70;;;;;;;7.51;100.00;97888.39;650061;1299;545145;-82
2023/11/04 23:30:55;;;;;;;39.40;18.20;;;;;;;7.50;100.00;97872.48;667502;1279;138664;-83
2023/11/04 23:45:59;;;;;;;34.10;17.50;;;;;;;7.50;100.00;97853.05;671465;1276;138466;-82
